createdAt,value
2023-02-18T00:00:18.481Z,100662.52
2023-02-18T00:02:46.579Z,100662.94
2023-02-18T00:05:14.961Z,100662.85
2023-02-18T00:07:43.211Z,100663.91
2023-02-18T00:10:13.170Z,100655.29
2023-02-18T00:12:42.152Z,100652.50
2023-02-18T00:15:14.083Z,100648.36
2023-02-18T00:17:43.136Z,100647.01
2023-02-18T00:20:12.202Z,100649.38
2023-02-18T00:22:42.244Z,100642.77
2023-02-18T00:25:10.802Z,100640.88
2023-02-18T00:27:39.044Z,100635.19
2023-02-18T00:30:08.438Z,100632.52
2023-02-18T00:32:37.687Z,100624.14
2023-02-18T00:35:06.629Z,100618.16
2023-02-18T00:37:36.693Z,100617.26
2023-02-18T00:40:06.072Z,100610.66
2023-02-18T00:42:34.715Z,100609.44
2023-02-18T00:45:03.675Z,100604.08
2023-02-18T00:47:32.541Z,100599.45
2023-02-18T00:50:01.869Z,100593.62
2023-02-18T00:52:30.249Z,100586.21
2023-02-18T00:54:58.532Z,100576.87
2023-02-18T00:57:29.769Z,100574.98
2023-02-18T00:59:57.979Z,100566.19
2023-02-18T01:02:26.534Z,100562.92
2023-02-18T01:04:55.453Z,100550.64
2023-02-18T01:07:23.754Z,100549.23
2023-02-18T01:09:54.129Z,100546.33
2023-02-18T01:12:22.714Z,100541.88
2023-02-18T01:14:50.710Z,100540.17
2023-02-18T01:17:19.967Z,100530.16
2023-02-18T01:19:48.166Z,100519.61
2023-02-18T01:22:18.075Z,100510.32
2023-02-18T01:24:46.564Z,100497.23
2023-02-18T01:27:15.044Z,100491.02
2023-02-18T01:29:44.040Z,100485.31
2023-02-18T01:32:12.480Z,100483.37
2023-02-18T01:34:43.453Z,100481.42
2023-02-18T01:37:11.635Z,100474.79
2023-02-18T01:39:40.741Z,100472.67
2023-02-18T01:42:26.692Z,100467.75
2023-02-18T01:45:35.245Z,100464.27
2023-02-18T01:48:18.970Z,100459.73
2023-02-18T01:50:57.095Z,100453.91
2023-02-18T01:53:48.720Z,100448.71
2023-02-18T01:56:24.195Z,100441.80
2023-02-18T01:58:52.993Z,100432.30
2023-02-18T02:01:21.155Z,100424.54
2023-02-18T02:03:49.400Z,100426.42
2023-02-18T02:06:19.884Z,100425.48
2023-02-18T02:08:53.968Z,100429.63
2023-02-18T02:11:25.277Z,100425.84
2023-02-18T02:13:56.935Z,100425.05
2023-02-18T02:16:40.810Z,100424.83
2023-02-18T02:19:15.445Z,100420.12
2023-02-18T02:21:55.764Z,100412.52
2023-02-18T02:24:50.663Z,100403.77
2023-02-18T02:27:25.491Z,100392.84
2023-02-18T02:30:17.377Z,100388.73
2023-02-18T02:33:01.064Z,100379.89
2023-02-18T02:35:59.752Z,100365.13
2023-02-18T02:38:35.627Z,100365.14
2023-02-18T02:41:20.500Z,100362.55
2023-02-18T02:43:54.010Z,100355.85
2023-02-18T02:46:30.134Z,100358.59
2023-02-18T02:49:00.723Z,100347.87
2023-02-18T02:51:32.710Z,100339.58
2023-02-18T02:54:30.738Z,100339.73
2023-02-18T02:57:17.562Z,100348.02
2023-02-18T02:59:59.621Z,100349.66
2023-02-18T03:02:53.466Z,100347.09
2023-02-18T03:06:01.508Z,100341.25
2023-02-18T03:08:45.464Z,100336.83
2023-02-18T03:11:14.856Z,100331.94
2023-02-18T03:13:59.216Z,100327.79
2023-02-18T03:16:35.447Z,100321.91
2023-02-18T03:19:20.955Z,100323.27
2023-02-18T03:21:57.133Z,100311.23
2023-02-18T03:24:28.218Z,100302.11
2023-02-18T03:26:57.430Z,100298.46
2023-02-18T03:29:25.911Z,100295.00
2023-02-18T03:32:02.418Z,100292.40
2023-02-18T03:34:32.937Z,100283.98
2023-02-18T03:37:05.729Z,100280.88
2023-02-18T03:39:34.612Z,100282.13
2023-02-18T03:42:03.511Z,100282.67
2023-02-18T03:44:32.550Z,100277.84
2023-02-18T03:47:00.636Z,100276.73
2023-02-18T03:49:29.716Z,100272.02
2023-02-18T03:51:58.192Z,100266.25
2023-02-18T03:54:26.434Z,100257.36
2023-02-18T03:56:56.042Z,100248.98
2023-02-18T03:59:24.623Z,100248.42
2023-02-18T04:01:53.203Z,100245.50
2023-02-18T04:04:21.566Z,100241.19
2023-02-18T04:06:49.859Z,100237.04
2023-02-18T04:09:18.094Z,100237.90
2023-02-18T04:11:46.930Z,100229.42
2023-02-18T04:14:15.928Z,100227.83
2023-02-18T04:16:44.147Z,100227.42
2023-02-18T04:19:12.369Z,100221.83
2023-02-18T04:21:40.652Z,100218.34
2023-02-18T04:24:08.928Z,100211.83
2023-02-18T04:26:37.270Z,100206.29
2023-02-18T04:29:05.586Z,100196.80
2023-02-18T04:31:33.825Z,100191.38
2023-02-18T04:34:02.221Z,100189.35
2023-02-18T04:36:30.922Z,100186.90
2023-02-18T04:38:59.906Z,100184.81
2023-02-18T04:41:28.249Z,100178.77
2023-02-18T04:44:00.977Z,100171.58
2023-02-18T04:46:30.515Z,100164.70
2023-02-18T04:49:01.335Z,100155.92
2023-02-18T04:51:30.005Z,100153.73
2023-02-18T04:54:00.846Z,100148.75
2023-02-18T04:56:29.329Z,100147.01
2023-02-18T04:58:57.603Z,100142.13
2023-02-18T05:01:26.154Z,100139.20
2023-02-18T05:03:54.511Z,100124.02
2023-02-18T05:06:22.680Z,100119.47
2023-02-18T05:08:50.815Z,100110.27
2023-02-18T05:11:18.975Z,100107.95
2023-02-18T05:13:47.544Z,100106.58
2023-02-18T05:16:16.937Z,100098.08
2023-02-18T05:18:47.814Z,100092.23
2023-02-18T05:21:16.205Z,100086.89
2023-02-18T05:23:44.989Z,100078.38
2023-02-18T05:26:13.283Z,100074.84
2023-02-18T05:28:45.124Z,100076.02
2023-02-18T05:31:13.241Z,100070.50
2023-02-18T05:33:41.624Z,100066.70
2023-02-18T05:36:10.743Z,100060.31
2023-02-18T05:38:39.081Z,100063.23
2023-02-18T05:41:07.326Z,100058.88
2023-02-18T05:43:58.540Z,100054.50
2023-02-18T05:46:26.847Z,100043.02
2023-02-18T05:48:54.896Z,100040.17
2023-02-18T05:51:23.165Z,100034.56
2023-02-18T05:53:51.546Z,100028.67
2023-02-18T05:56:19.728Z,100020.52
2023-02-18T05:58:47.993Z,100009.96
2023-02-18T06:01:16.747Z,100008.52
2023-02-18T06:03:44.961Z,99997.61
2023-02-18T06:06:19.790Z,99990.83
2023-02-18T06:08:48.438Z,99983.98
2023-02-18T06:11:16.500Z,99977.36
2023-02-18T06:13:44.780Z,99971.23
2023-02-18T06:16:13.198Z,99961.89
2023-02-18T06:18:42.014Z,99959.30
2023-02-18T06:21:10.376Z,99951.50
2023-02-18T06:23:38.556Z,99943.98
2023-02-18T06:26:08.152Z,99935.81
2023-02-18T06:28:38.398Z,99930.33
2023-02-18T06:31:06.653Z,99922.89
2023-02-18T06:33:34.868Z,99918.23
2023-02-18T06:36:08.131Z,99909.92
2023-02-18T06:38:37.632Z,99900.79
2023-02-18T06:41:05.854Z,99889.92
2023-02-18T06:43:34.286Z,99877.14
2023-02-18T06:46:03.863Z,99868.04
2023-02-18T06:48:32.014Z,99862.95
2023-02-18T06:51:00.125Z,99863.05
2023-02-18T06:53:28.259Z,99851.21
2023-02-18T06:55:56.483Z,99846.94
2023-02-18T06:58:25.897Z,99836.90
2023-02-18T07:00:55.558Z,99834.11
2023-02-18T07:03:25.559Z,99826.88
2023-02-18T07:05:53.728Z,99821.86
2023-02-18T07:08:22.798Z,99815.40
2023-02-18T07:10:51.166Z,99810.79
2023-02-18T07:13:19.363Z,99802.36
2023-02-18T07:15:47.832Z,99795.66
2023-02-18T07:26:09.374Z,99770.67
2023-02-18T07:28:38.296Z,99764.46
2023-02-18T07:31:07.073Z,99751.70
2023-02-18T07:33:35.247Z,99734.21
2023-02-18T07:36:04.590Z,99730.59
2023-02-18T07:38:32.837Z,99723.05
2023-02-18T07:41:02.139Z,99724.86
2023-02-18T07:43:30.317Z,99719.01
2023-02-18T07:45:58.742Z,99708.04
2023-02-18T07:48:26.965Z,99701.66
2023-02-18T07:50:55.142Z,99688.61
2023-02-18T07:53:25.541Z,99688.21
2023-02-18T07:55:53.753Z,99681.69
2023-02-18T07:58:27.753Z,99676.10
2023-02-18T08:00:56.712Z,99662.58
2023-02-18T08:03:30.551Z,99656.97
2023-02-18T08:06:00.917Z,99652.02
2023-02-18T08:08:30.678Z,99649.90
2023-02-18T08:11:13.334Z,99637.98
2023-02-18T08:13:48.108Z,99637.78
2023-02-18T08:16:19.875Z,99632.33
2023-02-18T08:18:49.830Z,99626.35
2023-02-18T08:21:18.966Z,99617.99
2023-02-18T08:23:47.703Z,99611.81
2023-02-18T08:26:15.880Z,99600.70
2023-02-18T08:28:45.293Z,99592.18
2023-02-18T08:31:18.132Z,99584.45
2023-02-18T08:33:47.516Z,99581.59
2023-02-18T08:36:15.964Z,99575.58
2023-02-18T08:38:44.327Z,99567.20
2023-02-18T08:41:14.700Z,99558.98
2023-02-18T08:43:43.204Z,99549.92
2023-02-18T08:46:16.084Z,99528.11
2023-02-18T08:48:53.617Z,99529.33
2023-02-18T08:51:22.716Z,99528.40
2023-02-18T08:53:51.191Z,99523.94
2023-02-18T08:56:20.933Z,99516.85
2023-02-18T08:58:50.005Z,99505.59
2023-02-18T09:01:18.901Z,99498.77
2023-02-18T09:03:48.633Z,99494.02
2023-02-18T09:06:17.495Z,99483.11
2023-02-18T09:08:45.929Z,99471.55
2023-02-18T09:11:16.195Z,99466.85
2023-02-18T09:13:46.213Z,99461.79
2023-02-18T09:16:18.717Z,99452.23
2023-02-18T09:18:48.301Z,99442.61
2023-02-18T09:21:16.990Z,99440.33
2023-02-18T09:23:46.806Z,99431.94
2023-02-18T09:26:16.191Z,99426.97
2023-02-18T09:28:44.481Z,99423.41
2023-02-18T09:31:16.850Z,99423.41
2023-02-18T09:33:47.067Z,99415.97
2023-02-18T09:36:15.406Z,99403.23
2023-02-18T09:38:43.624Z,99395.77
2023-02-18T09:41:21.935Z,99395.63
2023-02-18T09:43:49.999Z,99392.11
2023-02-18T09:46:26.595Z,99388.91
2023-02-18T09:48:54.657Z,99382.15
2023-02-18T09:51:22.637Z,99376.14
2023-02-18T09:53:50.551Z,99372.71
2023-02-18T09:56:39.083Z,99375.09
2023-02-18T09:59:11.770Z,99376.89
2023-02-18T10:01:40.639Z,99370.55
2023-02-18T10:04:40.979Z,99366.96
2023-02-18T10:07:16.151Z,99362.43
2023-02-18T10:09:44.148Z,99356.79
2023-02-18T10:12:18.610Z,99356.98
2023-02-18T10:14:57.166Z,99346.73
2023-02-18T10:17:31.059Z,99326.20
2023-02-18T10:19:59.760Z,99317.92
2023-02-18T10:22:27.752Z,99309.79
2023-02-18T10:25:00.243Z,99300.89
2023-02-18T10:27:33.231Z,99290.88
2023-02-18T10:30:13.490Z,99281.80
2023-02-18T10:32:44.013Z,99281.12
2023-02-18T10:35:41.658Z,99282.91
2023-02-18T10:38:20.911Z,99283.88
2023-02-18T10:41:30.535Z,99281.36
2023-02-18T10:44:25.249Z,99278.39
2023-02-18T10:47:06.313Z,99274.95
2023-02-18T10:50:09.329Z,99265.23
2023-02-18T10:52:43.208Z,99263.92
2023-02-18T10:55:13.943Z,99255.77
2023-02-18T10:57:49.103Z,99252.23
2023-02-18T11:00:24.165Z,99244.42
2023-02-18T11:03:14.861Z,99237.30
2023-02-18T11:05:44.027Z,99238.08
2023-02-18T11:08:25.266Z,99229.95
2023-02-18T11:10:53.743Z,99228.69
2023-02-18T11:13:29.057Z,99225.16
2023-02-18T11:16:06.680Z,99226.97
2023-02-18T11:18:40.496Z,99222.17
2023-02-18T11:21:31.712Z,99219.45
2023-02-18T11:24:08.336Z,99210.92
2023-02-18T11:26:38.407Z,99209.89
2023-02-18T11:29:09.586Z,99205.71
2023-02-18T11:31:48.765Z,99200.16
2023-02-18T11:34:19.257Z,99207.80
2023-02-18T11:36:47.789Z,99202.04
2023-02-18T11:39:28.639Z,99196.20
2023-02-18T11:42:03.638Z,99184.55
2023-02-18T11:44:32.794Z,99177.73
2023-02-18T11:47:03.164Z,99176.32
2023-02-18T11:49:32.342Z,99178.63
2023-02-18T11:52:19.765Z,99181.40
2023-02-18T11:55:06.787Z,99175.94
2023-02-18T11:57:36.741Z,99171.16
2023-02-18T12:00:10.599Z,99173.42
2023-02-18T12:02:40.092Z,99164.45
2023-02-18T12:05:14.503Z,99163.58
2023-02-18T12:07:50.923Z,99164.09
2023-02-18T12:10:27.993Z,99163.96
2023-02-18T12:13:02.919Z,99160.05
2023-02-18T12:15:44.557Z,99152.84
2023-02-18T12:18:18.257Z,99150.40
2023-02-18T12:21:12.788Z,99152.27
2023-02-18T12:24:14.720Z,99159.39
2023-02-18T12:27:14.779Z,99156.55
2023-02-18T12:30:05.701Z,99148.06
2023-02-18T12:32:49.724Z,99141.88
2023-02-18T12:35:48.971Z,99149.20
2023-02-18T12:38:35.753Z,99151.02
2023-02-18T12:41:19.553Z,99150.68
2023-02-18T12:44:18.678Z,99146.58
2023-02-18T12:47:08.519Z,99146.97
2023-02-18T12:49:58.621Z,99155.17
2023-02-18T12:52:51.701Z,99159.33
2023-02-18T12:55:22.948Z,99164.81
2023-02-18T12:58:30.163Z,99156.82
2023-02-18T13:01:23.221Z,99169.11
2023-02-18T13:04:04.797Z,99158.14
2023-02-18T13:06:49.591Z,99160.19
2023-02-18T13:09:36.470Z,99154.84
2023-02-18T13:12:23.067Z,99151.13
2023-02-18T13:15:01.953Z,99149.11
2023-02-18T13:17:33.146Z,99148.61
2023-02-18T13:20:05.156Z,99147.99
2023-02-18T13:22:33.511Z,99145.02
2023-02-18T13:25:01.492Z,99144.91
2023-02-18T13:27:44.045Z,99148.00
2023-02-18T13:30:45.378Z,99148.75
2023-02-18T13:33:27.756Z,99148.55
2023-02-18T13:36:08.287Z,99148.86
2023-02-18T13:38:45.331Z,99150.39
2023-02-18T13:41:13.358Z,99144.52
2023-02-18T13:43:41.287Z,99145.39
2023-02-18T13:46:18.322Z,99148.04
2023-02-18T13:48:52.512Z,99153.19
2023-02-18T13:51:29.798Z,99156.18
2023-02-18T13:54:20.873Z,99158.48
2023-02-18T13:56:55.743Z,99158.31
2023-02-18T13:59:35.657Z,99160.77
2023-02-18T14:02:22.809Z,99158.42
2023-02-18T14:04:54.040Z,99153.96
2023-02-18T14:07:25.170Z,99154.10
2023-02-18T14:09:55.007Z,99149.78
2023-02-18T14:13:03.682Z,99153.10
2023-02-18T14:15:32.682Z,99150.80
2023-02-18T14:18:13.276Z,99150.62
2023-02-18T14:20:41.757Z,99149.67
2023-02-18T14:23:18.978Z,99148.73
2023-02-18T14:26:05.439Z,99150.12
2023-02-18T14:28:33.679Z,99149.15
2023-02-18T14:31:12.056Z,99145.09
2023-02-18T14:33:42.241Z,99142.14
2023-02-18T14:36:14.844Z,99144.13
2023-02-18T14:38:50.766Z,99144.02
2023-02-18T14:41:35.121Z,99137.53
2023-02-18T14:44:21.650Z,99145.22
2023-02-18T14:47:20.996Z,99146.26
2023-02-18T14:49:58.022Z,99147.04
2023-02-18T14:52:38.038Z,99153.80
2023-02-18T14:55:07.582Z,99153.98
2023-02-18T14:57:45.585Z,99157.33
2023-02-18T15:00:24.930Z,99153.08
2023-02-18T15:02:54.208Z,99154.70
2023-02-18T15:05:32.601Z,99150.69
2023-02-18T15:08:03.641Z,99152.33
2023-02-18T15:10:43.072Z,99143.85
2023-02-18T15:13:28.614Z,99149.20
2023-02-18T15:15:58.872Z,99153.59
2023-02-18T15:18:34.508Z,99155.94
2023-02-18T15:21:06.013Z,99158.80
2023-02-18T15:23:38.439Z,99161.35
2023-02-18T15:26:07.676Z,99162.84
2023-02-18T15:28:42.174Z,99168.58
2023-02-18T15:31:13.949Z,99161.69
2023-02-18T15:33:44.237Z,99164.31
2023-02-18T15:36:14.291Z,99165.98
2023-02-18T15:38:44.391Z,99176.05
2023-02-18T15:41:14.555Z,99179.63
2023-02-18T15:43:57.940Z,99186.25
2023-02-18T15:46:26.490Z,99188.30
2023-02-18T15:48:55.067Z,99189.44
2023-02-18T15:51:27.693Z,99195.20
2023-02-18T15:54:00.041Z,99194.56
2023-02-18T15:56:39.729Z,99196.38
2023-02-18T15:59:21.533Z,99202.34
2023-02-18T16:01:51.441Z,99201.99
2023-02-18T16:04:21.121Z,99200.84
2023-02-18T16:06:52.924Z,99199.80
2023-02-18T16:09:33.872Z,99202.42
2023-02-18T16:12:13.169Z,99206.77
2023-02-18T16:14:49.242Z,99210.39
2023-02-18T16:17:25.535Z,99211.84
2023-02-18T16:20:05.784Z,99210.12
2023-02-18T16:22:37.391Z,99207.09
2023-02-18T16:25:25.276Z,99202.96
2023-02-18T16:28:17.924Z,99204.81
2023-02-18T16:30:48.571Z,99200.66
2023-02-18T16:33:20.376Z,99202.85
2023-02-18T16:35:51.731Z,99207.88
2023-02-18T16:38:26.156Z,99211.81
2023-02-18T16:40:59.163Z,99210.60
2023-02-18T16:43:32.853Z,99211.55
2023-02-18T16:46:19.673Z,99215.58
2023-02-18T16:48:56.180Z,99214.09
2023-02-18T16:51:33.275Z,99215.09
2023-02-18T16:54:03.924Z,99216.40
2023-02-18T16:56:35.756Z,99217.73
2023-02-18T16:59:06.993Z,99216.14
2023-02-18T17:01:41.741Z,99217.64
2023-02-18T17:04:15.954Z,99217.41
2023-02-18T17:14:20.458Z,99214.50
2023-02-18T17:16:49.827Z,99220.86
2023-02-18T17:19:18.349Z,99220.39
2023-02-18T17:21:48.994Z,99220.83
2023-02-18T17:24:18.623Z,99223.73
2023-02-18T17:26:47.098Z,99223.65
2023-02-18T17:29:16.329Z,99224.00
2023-02-18T17:31:47.141Z,99225.18
2023-02-18T17:34:39.565Z,99229.52
2023-02-18T17:37:12.522Z,99228.41
2023-02-18T17:39:40.816Z,99226.58
2023-02-18T17:42:11.561Z,99225.13
2023-02-18T17:44:39.825Z,99228.82
2023-02-18T17:47:08.916Z,99223.48
2023-02-18T17:49:38.012Z,99226.88
2023-02-18T17:52:06.407Z,99224.44
2023-02-18T17:54:37.034Z,99223.08
2023-02-18T17:57:05.129Z,99226.20
2023-02-18T17:59:33.477Z,99224.84
2023-02-18T18:02:01.859Z,99222.77
2023-02-18T18:04:30.279Z,99222.36
2023-02-18T18:06:58.617Z,99222.59
2023-02-18T18:09:27.619Z,99223.32
2023-02-18T18:11:56.193Z,99223.97
2023-02-18T18:14:29.224Z,99221.77
2023-02-18T18:16:57.678Z,99220.43
2023-02-18T18:19:26.966Z,99223.21
2023-02-18T18:21:56.299Z,99226.00
2023-02-18T18:24:24.746Z,99227.07
2023-02-18T18:26:54.042Z,99228.69
2023-02-18T18:29:23.455Z,99229.06
2023-02-18T18:31:53.371Z,99228.50
2023-02-18T18:34:22.082Z,99229.09
2023-02-18T18:36:50.227Z,99230.17
2023-02-18T18:39:18.611Z,99227.05
2023-02-18T18:41:46.787Z,99229.80
2023-02-18T18:44:15.474Z,99232.23
2023-02-18T18:46:46.981Z,99232.24
2023-02-18T18:49:15.319Z,99233.98
2023-02-18T18:51:43.863Z,99232.41
2023-02-18T18:54:14.125Z,99232.48
2023-02-18T18:56:42.385Z,99231.36
2023-02-18T18:59:10.731Z,99230.80
2023-02-18T19:01:39.190Z,99231.91
2023-02-18T19:04:07.537Z,99227.45
2023-02-18T19:06:36.332Z,99230.97
2023-02-18T19:09:04.582Z,99232.48
2023-02-18T19:11:35.798Z,99233.66
2023-02-18T19:14:04.111Z,99234.00
2023-02-18T19:16:35.463Z,99233.45
2023-02-18T19:19:04.145Z,99229.61
2023-02-18T19:21:33.959Z,99235.23
2023-02-18T19:24:04.694Z,99230.20
2023-02-18T19:26:34.917Z,99233.64
2023-02-18T19:29:02.991Z,99234.55
2023-02-18T19:31:31.504Z,99233.16
2023-02-18T19:34:03.462Z,99237.84
2023-02-18T19:36:31.900Z,99236.91
2023-02-18T19:39:00.112Z,99235.67
2023-02-18T19:41:28.677Z,99236.41
2023-02-18T19:43:57.098Z,99236.08
2023-02-18T19:46:25.416Z,99232.67
2023-02-18T19:48:54.124Z,99234.05
2023-02-18T19:51:23.430Z,99234.95
2023-02-18T19:53:51.909Z,99237.77
2023-02-18T19:56:21.513Z,99240.31
2023-02-18T19:58:50.009Z,99239.61
2023-02-18T20:01:18.416Z,99237.96
2023-02-18T20:03:47.701Z,99241.40
2023-02-18T20:06:22.425Z,99239.96
2023-02-18T20:08:54.820Z,99241.59
2023-02-18T20:11:33.211Z,99241.12
2023-02-18T20:14:02.524Z,99245.20
2023-02-18T20:16:30.977Z,99247.25
2023-02-18T20:18:59.983Z,99245.05
2023-02-18T20:21:28.354Z,99246.84
2023-02-18T20:24:02.063Z,99247.45
2023-02-18T20:26:30.334Z,99247.70
2023-02-18T20:28:59.043Z,99248.24
2023-02-18T20:31:27.723Z,99250.18
2023-02-18T20:33:57.446Z,99251.34
2023-02-18T20:36:26.125Z,99250.77
2023-02-18T20:38:54.813Z,99248.42
2023-02-18T20:41:23.601Z,99256.63
2023-02-18T20:43:52.581Z,99251.48
2023-02-18T20:46:21.956Z,99255.36
2023-02-18T20:48:50.350Z,99256.05
2023-02-18T20:51:20.461Z,99260.02
2023-02-18T20:53:48.778Z,99261.52
2023-02-18T20:56:21.023Z,99262.16
2023-02-18T20:58:49.345Z,99262.45
2023-02-18T21:01:22.174Z,99263.41
2023-02-18T21:03:50.671Z,99259.27
2023-02-18T21:06:21.608Z,99259.58
2023-02-18T21:08:53.091Z,99258.98
2023-02-18T21:11:25.750Z,99253.94
2023-02-18T21:13:55.559Z,99252.34
2023-02-18T21:16:24.361Z,99253.02
2023-02-18T21:18:52.829Z,99257.40
2023-02-18T21:21:23.490Z,99257.45
2023-02-18T21:23:53.071Z,99256.75
2023-02-18T21:26:25.448Z,99258.88
2023-02-18T21:28:55.157Z,99263.89
2023-02-18T21:31:32.641Z,99261.08
2023-02-18T21:34:01.432Z,99261.67
2023-02-18T21:36:31.341Z,99258.89
2023-02-18T21:39:02.227Z,99259.95
2023-02-18T21:41:35.064Z,99262.94
2023-02-18T21:44:04.206Z,99266.95
2023-02-18T21:46:35.354Z,99266.05
2023-02-18T21:49:10.001Z,99263.02
2023-02-18T21:51:57.561Z,99263.67
2023-02-18T21:54:27.481Z,99266.83
2023-02-18T21:56:56.050Z,99267.71
2023-02-18T21:59:26.862Z,99267.35
2023-02-18T22:01:55.583Z,99270.63
2023-02-18T22:04:25.461Z,99270.06
2023-02-18T22:06:53.879Z,99269.27
2023-02-18T22:09:22.901Z,99265.80
2023-02-18T22:11:51.051Z,99269.35
2023-02-18T22:14:19.428Z,99276.27
2023-02-18T22:16:47.845Z,99273.45
2023-02-18T22:19:16.288Z,99278.73
2023-02-18T22:21:44.999Z,99282.65
2023-02-18T22:24:16.951Z,99282.67
2023-02-18T22:26:46.911Z,99284.42
2023-02-18T22:29:15.868Z,99282.47
2023-02-18T22:31:43.953Z,99286.24
2023-02-18T22:34:12.502Z,99283.90
2023-02-18T22:36:41.093Z,99285.78
2023-02-18T22:39:10.589Z,99287.35
2023-02-18T22:41:39.509Z,99287.67
2023-02-18T22:44:09.136Z,99288.02
2023-02-18T22:46:37.466Z,99288.20
2023-02-18T22:49:06.675Z,99290.27
2023-02-18T22:51:37.914Z,99291.29
2023-02-18T22:54:09.874Z,99293.17
2023-02-18T22:56:37.944Z,99291.81
2023-02-18T22:59:06.146Z,99293.71
2023-02-18T23:01:36.588Z,99296.29
2023-02-18T23:04:09.910Z,99293.67
2023-02-18T23:06:38.818Z,99295.52
2023-02-18T23:09:07.731Z,99292.55
2023-02-18T23:11:36.361Z,99294.58
2023-02-18T23:14:18.326Z,99293.72
2023-02-18T23:17:13.107Z,99292.05
2023-02-18T23:27:22.572Z,99305.27
2023-02-18T23:29:51.192Z,99307.90
2023-02-18T23:32:19.994Z,99309.45
2023-02-18T23:34:50.414Z,99308.36
2023-02-18T23:37:39.480Z,99308.55
2023-02-18T23:40:09.291Z,99316.63
2023-02-18T23:42:37.607Z,99313.94
2023-02-18T23:45:06.046Z,99316.09
2023-02-18T23:47:34.270Z,99314.77
2023-02-18T23:50:02.420Z,99317.11
2023-02-18T23:52:31.687Z,99317.36
2023-02-18T23:55:00.386Z,99311.70
2023-02-18T23:57:32.353Z,99305.66
